Terminal Aerodrome Forecast
Issued by NWS Billings, MT

Home | Current Version | Previous Version | Graphics & Text | Print | Product List | Glossary On
Versions: 1 2 3 4 5 6 7 8 9 10 11 12 13
000
FTUS45 KBYZ 142324
TAFMLS
TAF
KMLS 142324Z 1500/1524 25010KT P6SM VCSH FEW060 SCT100
     FM150400 30008KT P6SM SCT020
     FM150600 29006KT P6SM SCT008
     FM151400 14008KT P6SM SCT200
     FM151800 15014KT P6SM SCT200=

USA.gov is the U.S. government's official web portal to all federal, state and local government web resources and services.